sensor_id;sensor_type;location;lat;lon;timestamp;P1;durP1;ratioP1;P2;durP2;ratioP2
29876;SDS011;16750;49.002;9.204;2022-08-18T00:01:07;6.45;;;4.25;;
29876;SDS011;16750;49.002;9.204;2022-08-18T00:03:36;6.45;;;4.30;;
29876;SDS011;16750;49.002;9.204;2022-08-18T00:06:01;5.93;;;4.50;;
29876;SDS011;16750;49.002;9.204;2022-08-18T00:08:27;5.97;;;4.07;;
29876;SDS011;16750;49.002;9.204;2022-08-18T00:10:53;6.63;;;4.63;;
29876;SDS011;16750;49.002;9.204;2022-08-18T00:13:20;4.90;;;4.40;;
29876;SDS011;16750;49.002;9.204;2022-08-18T00:15:45;6.72;;;4.60;;
29876;SDS011;16750;49.002;9.204;2022-08-18T00:18:11;6.53;;;4.90;;
29876;SDS011;16750;49.002;9.204;2022-08-18T00:20:36;9.20;;;5.10;;
29876;SDS011;16750;49.002;9.204;2022-08-18T00:23:01;6.50;;;4.65;;
29876;SDS011;16750;49.002;9.204;2022-08-18T00:25:27;5.75;;;4.50;;
29876;SDS011;16750;49.002;9.204;2022-08-18T00:27:52;6.50;;;4.53;;
29876;SDS011;16750;49.002;9.204;2022-08-18T00:30:18;7.90;;;5.00;;
29876;SDS011;16750;49.002;9.204;2022-08-18T00:32:46;6.35;;;4.75;;
29876;SDS011;16750;49.002;9.204;2022-08-18T00:35:16;6.97;;;5.22;;
29876;SDS011;16750;49.002;9.204;2022-08-18T00:37:46;6.22;;;4.80;;
29876;SDS011;16750;49.002;9.204;2022-08-18T00:40:14;6.47;;;4.50;;
29876;SDS011;16750;49.002;9.204;2022-08-18T00:42:44;7.05;;;5.28;;
29876;SDS011;16750;49.002;9.204;2022-08-18T00:45:13;5.57;;;4.80;;
29876;SDS011;16750;49.002;9.204;2022-08-18T00:47:44;6.65;;;4.95;;
29876;SDS011;16750;49.002;9.204;2022-08-18T00:50:11;6.78;;;5.15;;
29876;SDS011;16750;49.002;9.204;2022-08-18T00:52:40;7.68;;;5.45;;
29876;SDS011;16750;49.002;9.204;2022-08-18T00:55:06;8.68;;;5.03;;
29876;SDS011;16750;49.002;9.204;2022-08-18T00:57:32;5.95;;;5.05;;
29876;SDS011;16750;49.002;9.204;2022-08-18T01:00:00;7.53;;;5.43;;
29876;SDS011;16750;49.002;9.204;2022-08-18T01:02:40;7.97;;;5.80;;
29876;SDS011;16750;49.002;9.204;2022-08-18T01:05:55;9.52;;;5.40;;
29876;SDS011;16750;49.002;9.204;2022-08-18T01:10:34;8.18;;;6.03;;
29876;SDS011;16750;49.002;9.204;2022-08-18T01:13:00;10.30;;;6.00;;
29876;SDS011;16750;49.002;9.204;2022-08-18T01:15:26;8.20;;;6.15;;
29876;SDS011;16750;49.002;9.204;2022-08-18T01:17:53;9.07;;;6.20;;
29876;SDS011;16750;49.002;9.204;2022-08-18T01:23:38;6.78;;;5.90;;
29876;SDS011;16750;49.002;9.204;2022-08-18T01:26:04;8.30;;;6.15;;
29876;SDS011;16750;49.002;9.204;2022-08-18T01:28:34;7.93;;;6.50;;
29876;SDS011;16750;49.002;9.204;2022-08-18T01:31:02;8.07;;;6.53;;
29876;SDS011;16750;49.002;9.204;2022-08-18T01:33:35;7.32;;;6.40;;
29876;SDS011;16750;49.002;9.204;2022-08-18T01:36:10;9.57;;;7.30;;
29876;SDS011;16750;49.002;9.204;2022-08-18T01:38:39;7.60;;;6.60;;
29876;SDS011;16750;49.002;9.204;2022-08-18T01:41:05;7.57;;;6.60;;
29876;SDS011;16750;49.002;9.204;2022-08-18T01:43:31;7.40;;;6.30;;
29876;SDS011;16750;49.002;9.204;2022-08-18T01:45:58;6.95;;;6.25;;
29876;SDS011;16750;49.002;9.204;2022-08-18T01:48:26;11.30;;;6.97;;
29876;SDS011;16750;49.002;9.204;2022-08-18T01:50:52;7.38;;;6.60;;
29876;SDS011;16750;49.002;9.204;2022-08-18T01:53:19;8.63;;;6.30;;
29876;SDS011;16750;49.002;9.204;2022-08-18T01:55:44;7.28;;;5.65;;
29876;SDS011;16750;49.002;9.204;2022-08-18T01:58:10;7.07;;;6.20;;
29876;SDS011;16750;49.002;9.204;2022-08-18T02:00:36;7.63;;;6.25;;
29876;SDS011;16750;49.002;9.204;2022-08-18T02:03:03;8.30;;;6.90;;
29876;SDS011;16750;49.002;9.204;2022-08-18T02:05:33;7.63;;;6.22;;
29876;SDS011;16750;49.002;9.204;2022-08-18T02:08:02;7.35;;;6.60;;
29876;SDS011;16750;49.002;9.204;2022-08-18T02:10:28;8.55;;;6.63;;
29876;SDS011;16750;49.002;9.204;2022-08-18T02:12:55;7.32;;;6.63;;
29876;SDS011;16750;49.002;9.204;2022-08-18T02:15:20;7.93;;;6.32;;
29876;SDS011;16750;49.002;9.204;2022-08-18T02:17:45;8.20;;;7.00;;
29876;SDS011;16750;49.002;9.204;2022-08-18T02:20:13;8.25;;;6.90;;
29876;SDS011;16750;49.002;9.204;2022-08-18T02:22:41;7.53;;;6.72;;
29876;SDS011;16750;49.002;9.204;2022-08-18T02:25:07;7.30;;;6.05;;
29876;SDS011;16750;49.002;9.204;2022-08-18T02:27:33;8.30;;;6.85;;
29876;SDS011;16750;49.002;9.204;2022-08-18T02:29:59;7.88;;;7.07;;
29876;SDS011;16750;49.002;9.204;2022-08-18T02:32:26;8.05;;;7.20;;
29876;SDS011;16750;49.002;9.204;2022-08-18T02:34:51;8.57;;;7.45;;
29876;SDS011;16750;49.002;9.204;2022-08-18T02:37:16;10.25;;;7.45;;
29876;SDS011;16750;49.002;9.204;2022-08-18T02:39:42;7.40;;;6.47;;
29876;SDS011;16750;49.002;9.204;2022-08-18T02:42:08;9.98;;;7.75;;
29876;SDS011;16750;49.002;9.204;2022-08-18T02:44:33;9.40;;;7.05;;
29876;SDS011;16750;49.002;9.204;2022-08-18T02:46:59;7.97;;;6.85;;
29876;SDS011;16750;49.002;9.204;2022-08-18T02:49:26;8.90;;;7.78;;
29876;SDS011;16750;49.002;9.204;2022-08-18T02:51:52;8.13;;;7.32;;
29876;SDS011;16750;49.002;9.204;2022-08-18T02:54:18;8.75;;;7.88;;
29876;SDS011;16750;49.002;9.204;2022-08-18T02:56:47;9.43;;;8.35;;
29876;SDS011;16750;49.002;9.204;2022-08-18T02:59:16;9.60;;;7.90;;
29876;SDS011;16750;49.002;9.204;2022-08-18T03:01:45;10.68;;;7.82;;
29876;SDS011;16750;49.002;9.204;2022-08-18T03:04:16;8.98;;;8.05;;
29876;SDS011;16750;49.002;9.204;2022-08-18T03:06:44;9.93;;;8.82;;
29876;SDS011;16750;49.002;9.204;2022-08-18T03:09:10;9.27;;;8.10;;
29876;SDS011;16750;49.002;9.204;2022-08-18T03:11:37;8.75;;;7.85;;
29876;SDS011;16750;49.002;9.204;2022-08-18T03:14:04;9.45;;;8.40;;
29876;SDS011;16750;49.002;9.204;2022-08-18T03:16:30;9.50;;;8.55;;
29876;SDS011;16750;49.002;9.204;2022-08-18T03:18:57;9.32;;;8.32;;
29876;SDS011;16750;49.002;9.204;2022-08-18T03:21:24;10.25;;;9.05;;
29876;SDS011;16750;49.002;9.204;2022-08-18T03:23:51;9.50;;;8.25;;
29876;SDS011;16750;49.002;9.204;2022-08-18T03:26:18;9.05;;;8.05;;
29876;SDS011;16750;49.002;9.204;2022-08-18T03:28:46;10.73;;;8.85;;
29876;SDS011;16750;49.002;9.204;2022-08-18T03:31:14;9.60;;;8.70;;
29876;SDS011;16750;49.002;9.204;2022-08-18T03:33:41;11.07;;;9.27;;
29876;SDS011;16750;49.002;9.204;2022-08-18T03:36:09;9.50;;;8.50;;
29876;SDS011;16750;49.002;9.204;2022-08-18T03:38:36;10.00;;;8.90;;
29876;SDS011;16750;49.002;9.204;2022-08-18T03:41:04;9.57;;;8.68;;
29876;SDS011;16750;49.002;9.204;2022-08-18T03:43:31;10.45;;;9.05;;
29876;SDS011;16750;49.002;9.204;2022-08-18T03:46:00;10.75;;;9.38;;
29876;SDS011;16750;49.002;9.204;2022-08-18T03:48:29;9.88;;;8.88;;
29876;SDS011;16750;49.002;9.204;2022-08-18T03:51:04;10.45;;;9.18;;
29876;SDS011;16750;49.002;9.204;2022-08-18T03:53:34;8.70;;;7.80;;
29876;SDS011;16750;49.002;9.204;2022-08-18T03:56:00;8.93;;;7.75;;
29876;SDS011;16750;49.002;9.204;2022-08-18T03:58:25;7.93;;;7.10;;
29876;SDS011;16750;49.002;9.204;2022-08-18T04:00:52;8.65;;;6.93;;
29876;SDS011;16750;49.002;9.204;2022-08-18T04:03:17;8.00;;;6.63;;
29876;SDS011;16750;49.002;9.204;2022-08-18T04:05:43;7.97;;;7.18;;
29876;SDS011;16750;49.002;9.204;2022-08-18T04:08:08;8.93;;;7.22;;
29876;SDS011;16750;49.002;9.204;2022-08-18T04:10:34;9.07;;;7.63;;
29876;SDS011;16750;49.002;9.204;2022-08-18T04:13:00;7.35;;;6.40;;
29876;SDS011;16750;49.002;9.204;2022-08-18T04:15:29;8.20;;;7.32;;
29876;SDS011;16750;49.002;9.204;2022-08-18T04:17:58;8.00;;;7.20;;
29876;SDS011;16750;49.002;9.204;2022-08-18T04:20:33;8.15;;;7.32;;
29876;SDS011;16750;49.002;9.204;2022-08-18T04:22:59;9.60;;;7.32;;
29876;SDS011;16750;49.002;9.204;2022-08-18T04:25:25;8.60;;;7.28;;
29876;SDS011;16750;49.002;9.204;2022-08-18T04:27:51;8.65;;;7.55;;
29876;SDS011;16750;49.002;9.204;2022-08-18T04:30:21;9.82;;;8.38;;
29876;SDS011;16750;49.002;9.204;2022-08-18T04:32:47;8.65;;;7.75;;
29876;SDS011;16750;49.002;9.204;2022-08-18T04:35:13;10.93;;;8.77;;
29876;SDS011;16750;49.002;9.204;2022-08-18T04:37:38;10.82;;;8.20;;
29876;SDS011;16750;49.002;9.204;2022-08-18T04:40:04;9.52;;;8.48;;
29876;SDS011;16750;49.002;9.204;2022-08-18T04:42:29;9.32;;;8.43;;
29876;SDS011;16750;49.002;9.204;2022-08-18T04:44:55;10.13;;;8.75;;
29876;SDS011;16750;49.002;9.204;2022-08-18T04:47:22;11.38;;;9.65;;
29876;SDS011;16750;49.002;9.204;2022-08-18T04:49:47;10.88;;;8.98;;
29876;SDS011;16750;49.002;9.204;2022-08-18T04:52:13;8.93;;;8.02;;
29876;SDS011;16750;49.002;9.204;2022-08-18T04:54:57;10.00;;;8.18;;
29876;SDS011;16750;49.002;9.204;2022-08-18T04:57:25;11.75;;;8.57;;
29876;SDS011;16750;49.002;9.204;2022-08-18T04:59:50;10.25;;;9.20;;
29876;SDS011;16750;49.002;9.204;2022-08-18T05:02:17;10.57;;;8.18;;
29876;SDS011;16750;49.002;9.204;2022-08-18T05:04:43;9.63;;;8.63;;
29876;SDS011;16750;49.002;9.204;2022-08-18T05:07:13;10.43;;;9.10;;
29876;SDS011;16750;49.002;9.204;2022-08-18T05:09:42;10.23;;;9.07;;
29876;SDS011;16750;49.002;9.204;2022-08-18T05:12:08;10.82;;;9.45;;
29876;SDS011;16750;49.002;9.204;2022-08-18T05:14:38;10.90;;;9.75;;
29876;SDS011;16750;49.002;9.204;2022-08-18T05:17:04;11.10;;;8.70;;
29876;SDS011;16750;49.002;9.204;2022-08-18T05:19:30;10.13;;;8.43;;
29876;SDS011;16750;49.002;9.204;2022-08-18T05:21:58;12.07;;;9.50;;
29876;SDS011;16750;49.002;9.204;2022-08-18T05:24:24;10.35;;;8.95;;
29876;SDS011;16750;49.002;9.204;2022-08-18T05:26:52;11.20;;;9.63;;
29876;SDS011;16750;49.002;9.204;2022-08-18T05:29:19;11.88;;;9.27;;
29876;SDS011;16750;49.002;9.204;2022-08-18T05:31:49;10.90;;;9.52;;
29876;SDS011;16750;49.002;9.204;2022-08-18T05:34:16;12.38;;;10.13;;
29876;SDS011;16750;49.002;9.204;2022-08-18T05:42:09;11.98;;;10.10;;
29876;SDS011;16750;49.002;9.204;2022-08-18T05:44:47;12.07;;;9.77;;
29876;SDS011;16750;49.002;9.204;2022-08-18T05:49:50;11.15;;;10.05;;
29876;SDS011;16750;49.002;9.204;2022-08-18T05:52:21;12.68;;;10.45;;
29876;SDS011;16750;49.002;9.204;2022-08-18T05:54:55;10.75;;;9.65;;
29876;SDS011;16750;49.002;9.204;2022-08-18T05:57:51;12.48;;;9.95;;
29876;SDS011;16750;49.002;9.204;2022-08-18T06:00:30;12.13;;;10.50;;
29876;SDS011;16750;49.002;9.204;2022-08-18T06:03:07;11.02;;;9.93;;
29876;SDS011;16750;49.002;9.204;2022-08-18T06:05:43;10.57;;;9.48;;
29876;SDS011;16750;49.002;9.204;2022-08-18T06:08:14;13.87;;;10.03;;
29876;SDS011;16750;49.002;9.204;2022-08-18T06:10:43;13.73;;;10.00;;
29876;SDS011;16750;49.002;9.204;2022-08-18T06:13:12;10.95;;;9.85;;
29876;SDS011;16750;49.002;9.204;2022-08-18T06:15:46;11.45;;;9.82;;
29876;SDS011;16750;49.002;9.204;2022-08-18T06:29:12;12.27;;;10.20;;
29876;SDS011;16750;49.002;9.204;2022-08-18T06:41:25;13.88;;;10.55;;
29876;SDS011;16750;49.002;9.204;2022-08-18T06:46:41;11.20;;;10.00;;
29876;SDS011;16750;49.002;9.204;2022-08-18T06:49:37;12.35;;;9.52;;
29876;SDS011;16750;49.002;9.204;2022-08-18T06:54:48;12.50;;;9.57;;
29876;SDS011;16750;49.002;9.204;2022-08-18T06:57:29;14.18;;;9.88;;
29876;SDS011;16750;49.002;9.204;2022-08-18T07:00:10;12.88;;;9.98;;
29876;SDS011;16750;49.002;9.204;2022-08-18T07:05:22;12.60;;;9.80;;
29876;SDS011;16750;49.002;9.204;2022-08-18T07:10:53;13.25;;;9.15;;
29876;SDS011;16750;49.002;9.204;2022-08-18T07:13:23;10.73;;;8.80;;
29876;SDS011;16750;49.002;9.204;2022-08-18T07:15:51;10.48;;;7.88;;
29876;SDS011;16750;49.002;9.204;2022-08-18T07:18:23;10.68;;;7.40;;
29876;SDS011;16750;49.002;9.204;2022-08-18T07:20:54;11.55;;;7.30;;
29876;SDS011;16750;49.002;9.204;2022-08-18T07:26:15;16.23;;;7.80;;
29876;SDS011;16750;49.002;9.204;2022-08-18T07:28:45;12.82;;;7.28;;
29876;SDS011;16750;49.002;9.204;2022-08-18T07:33:59;9.52;;;6.85;;
29876;SDS011;16750;49.002;9.204;2022-08-18T07:37:17;11.30;;;7.30;;
29876;SDS011;16750;49.002;9.204;2022-08-18T07:42:18;13.27;;;7.35;;
29876;SDS011;16750;49.002;9.204;2022-08-18T07:45:05;9.18;;;7.18;;
29876;SDS011;16750;49.002;9.204;2022-08-18T07:50:05;9.00;;;7.70;;
29876;SDS011;16750;49.002;9.204;2022-08-18T07:52:36;8.52;;;7.38;;
29876;SDS011;16750;49.002;9.204;2022-08-18T08:06:32;8.32;;;6.05;;
29876;SDS011;16750;49.002;9.204;2022-08-18T08:09:05;7.25;;;5.78;;
29876;SDS011;16750;49.002;9.204;2022-08-18T08:11:54;7.95;;;5.93;;
29876;SDS011;16750;49.002;9.204;2022-08-18T08:14:44;8.02;;;5.63;;
29876;SDS011;16750;49.002;9.204;2022-08-18T08:17:29;6.70;;;5.38;;
29876;SDS011;16750;49.002;9.204;2022-08-18T08:25:53;7.47;;;5.55;;
29876;SDS011;16750;49.002;9.204;2022-08-18T08:29:14;12.43;;;6.25;;
29876;SDS011;16750;49.002;9.204;2022-08-18T08:31:55;6.57;;;5.28;;
29876;SDS011;16750;49.002;9.204;2022-08-18T08:34:27;7.25;;;5.57;;
29876;SDS011;16750;49.002;9.204;2022-08-18T08:37:00;6.90;;;5.15;;
29876;SDS011;16750;49.002;9.204;2022-08-18T08:42:18;8.25;;;5.40;;
29876;SDS011;16750;49.002;9.204;2022-08-18T08:44:51;6.13;;;4.97;;
29876;SDS011;16750;49.002;9.204;2022-08-18T08:50:20;10.05;;;5.05;;
29876;SDS011;16750;49.002;9.204;2022-08-18T08:52:51;7.07;;;5.43;;
29876;SDS011;16750;49.002;9.204;2022-08-18T08:55:30;6.82;;;5.70;;
29876;SDS011;16750;49.002;9.204;2022-08-18T09:00:32;7.57;;;6.40;;
29876;SDS011;16750;49.002;9.204;2022-08-18T09:03:20;7.38;;;6.13;;
29876;SDS011;16750;49.002;9.204;2022-08-18T09:06:07;5.90;;;5.30;;
29876;SDS011;16750;49.002;9.204;2022-08-18T09:09:05;7.10;;;5.32;;
29876;SDS011;16750;49.002;9.204;2022-08-18T09:11:43;7.53;;;5.72;;
29876;SDS011;16750;49.002;9.204;2022-08-18T09:14:41;8.43;;;5.18;;
29876;SDS011;16750;49.002;9.204;2022-08-18T09:20:14;10.80;;;6.38;;
29876;SDS011;16750;49.002;9.204;2022-08-18T09:22:57;7.00;;;5.72;;
29876;SDS011;16750;49.002;9.204;2022-08-18T09:28:06;7.32;;;5.82;;
29876;SDS011;16750;49.002;9.204;2022-08-18T09:38:52;8.70;;;6.22;;
29876;SDS011;16750;49.002;9.204;2022-08-18T09:41:58;9.45;;;6.72;;
29876;SDS011;16750;49.002;9.204;2022-08-18T09:47:11;7.75;;;5.40;;
29876;SDS011;16750;49.002;9.204;2022-08-18T09:57:25;6.50;;;5.10;;
29876;SDS011;16750;49.002;9.204;2022-08-18T10:07:45;8.68;;;5.28;;
29876;SDS011;16750;49.002;9.204;2022-08-18T10:10:30;11.13;;;6.43;;
29876;SDS011;16750;49.002;9.204;2022-08-18T10:21:15;6.13;;;5.13;;
29876;SDS011;16750;49.002;9.204;2022-08-18T10:28:55;7.30;;;5.25;;
29876;SDS011;16750;49.002;9.204;2022-08-18T10:31:21;9.80;;;6.70;;
29876;SDS011;16750;49.002;9.204;2022-08-18T10:39:16;10.20;;;6.90;;
29876;SDS011;16750;49.002;9.204;2022-08-18T10:41:48;8.27;;;6.50;;
29876;SDS011;16750;49.002;9.204;2022-08-18T10:44:20;6.60;;;5.95;;
29876;SDS011;16750;49.002;9.204;2022-08-18T10:46:48;7.47;;;5.88;;
29876;SDS011;16750;49.002;9.204;2022-08-18T10:49:17;7.82;;;6.28;;
29876;SDS011;16750;49.002;9.204;2022-08-18T10:57:33;10.30;;;7.22;;
29876;SDS011;16750;49.002;9.204;2022-08-18T11:05:13;10.38;;;7.63;;
29876;SDS011;16750;49.002;9.204;2022-08-18T11:07:45;8.70;;;7.13;;
29876;SDS011;16750;49.002;9.204;2022-08-18T11:10:19;9.68;;;7.55;;
29876;SDS011;16750;49.002;9.204;2022-08-18T11:13:00;8.90;;;7.28;;
29876;SDS011;16750;49.002;9.204;2022-08-18T11:15:53;10.95;;;7.85;;
29876;SDS011;16750;49.002;9.204;2022-08-18T11:18:46;8.50;;;6.78;;
29876;SDS011;16750;49.002;9.204;2022-08-18T11:24:10;11.70;;;7.30;;
29876;SDS011;16750;49.002;9.204;2022-08-18T11:29:21;10.43;;;7.05;;
29876;SDS011;16750;49.002;9.204;2022-08-18T11:31:48;9.30;;;6.47;;
29876;SDS011;16750;49.002;9.204;2022-08-18T11:34:18;8.35;;;7.32;;
29876;SDS011;16750;49.002;9.204;2022-08-18T11:37:18;8.48;;;6.75;;
29876;SDS011;16750;49.002;9.204;2022-08-18T11:40:34;9.33;;;6.63;;
29876;SDS011;16750;49.002;9.204;2022-08-18T11:53:24;8.20;;;7.40;;
29876;SDS011;16750;49.002;9.204;2022-08-18T11:58:40;8.93;;;7.13;;
29876;SDS011;16750;49.002;9.204;2022-08-18T12:09:21;11.90;;;8.02;;
29876;SDS011;16750;49.002;9.204;2022-08-18T12:11:55;10.93;;;8.05;;
29876;SDS011;16750;49.002;9.204;2022-08-18T12:14:26;8.73;;;7.22;;
29876;SDS011;16750;49.002;9.204;2022-08-18T12:16:54;10.63;;;6.63;;
29876;SDS011;16750;49.002;9.204;2022-08-18T12:19:20;9.45;;;7.32;;
29876;SDS011;16750;49.002;9.204;2022-08-18T12:21:49;7.90;;;5.63;;
29876;SDS011;16750;49.002;9.204;2022-08-18T12:24:27;9.65;;;6.57;;
29876;SDS011;16750;49.002;9.204;2022-08-18T12:26:54;8.68;;;5.63;;
29876;SDS011;16750;49.002;9.204;2022-08-18T12:29:20;7.43;;;5.82;;
29876;SDS011;16750;49.002;9.204;2022-08-18T12:31:47;8.60;;;6.72;;
29876;SDS011;16750;49.002;9.204;2022-08-18T12:34:15;8.27;;;6.00;;
29876;SDS011;16750;49.002;9.204;2022-08-18T12:36:42;9.85;;;5.95;;
29876;SDS011;16750;49.002;9.204;2022-08-18T12:39:07;9.07;;;5.65;;
29876;SDS011;16750;49.002;9.204;2022-08-18T12:41:33;7.78;;;4.57;;
29876;SDS011;16750;49.002;9.204;2022-08-18T12:43:58;6.30;;;5.00;;
29876;SDS011;16750;49.002;9.204;2022-08-18T12:46:24;6.93;;;4.65;;
29876;SDS011;16750;49.002;9.204;2022-08-18T12:48:49;9.60;;;5.50;;
29876;SDS011;16750;49.002;9.204;2022-08-18T12:51:15;10.05;;;5.30;;
29876;SDS011;16750;49.002;9.204;2022-08-18T12:53:40;6.93;;;4.90;;
29876;SDS011;16750;49.002;9.204;2022-08-18T12:56:07;7.25;;;5.15;;
29876;SDS011;16750;49.002;9.204;2022-08-18T12:58:47;7.43;;;4.85;;
29876;SDS011;16750;49.002;9.204;2022-08-18T13:01:14;6.18;;;4.35;;
29876;SDS011;16750;49.002;9.204;2022-08-18T13:03:41;6.35;;;5.15;;
29876;SDS011;16750;49.002;9.204;2022-08-18T13:06:06;6.35;;;4.47;;
29876;SDS011;16750;49.002;9.204;2022-08-18T13:08:31;5.88;;;4.68;;
29876;SDS011;16750;49.002;9.204;2022-08-18T13:10:57;5.63;;;4.38;;
29876;SDS011;16750;49.002;9.204;2022-08-18T13:13:25;5.43;;;4.35;;
29876;SDS011;16750;49.002;9.204;2022-08-18T13:15:50;5.13;;;3.90;;
29876;SDS011;16750;49.002;9.204;2022-08-18T13:18:18;5.22;;;4.30;;
29876;SDS011;16750;49.002;9.204;2022-08-18T13:20:43;6.03;;;3.95;;
29876;SDS011;16750;49.002;9.204;2022-08-18T13:23:09;5.97;;;4.50;;
29876;SDS011;16750;49.002;9.204;2022-08-18T13:25:34;5.75;;;4.18;;
29876;SDS011;16750;49.002;9.204;2022-08-18T13:28:00;6.40;;;4.45;;
29876;SDS011;16750;49.002;9.204;2022-08-18T13:30:26;5.43;;;4.00;;
29876;SDS011;16750;49.002;9.204;2022-08-18T13:32:51;6.65;;;4.07;;
29876;SDS011;16750;49.002;9.204;2022-08-18T13:35:17;6.25;;;4.50;;
29876;SDS011;16750;49.002;9.204;2022-08-18T13:37:42;7.18;;;4.40;;
29876;SDS011;16750;49.002;9.204;2022-08-18T13:40:08;5.40;;;4.10;;
29876;SDS011;16750;49.002;9.204;2022-08-18T13:42:47;7.28;;;4.00;;
29876;SDS011;16750;49.002;9.204;2022-08-18T13:45:17;5.68;;;4.40;;
29876;SDS011;16750;49.002;9.204;2022-08-18T13:47:45;7.13;;;4.43;;
29876;SDS011;16750;49.002;9.204;2022-08-18T13:50:13;5.38;;;4.05;;
29876;SDS011;16750;49.002;9.204;2022-08-18T13:52:39;7.20;;;4.20;;
29876;SDS011;16750;49.002;9.204;2022-08-18T13:55:07;6.57;;;4.15;;
29876;SDS011;16750;49.002;9.204;2022-08-18T13:57:35;7.28;;;3.95;;
29876;SDS011;16750;49.002;9.204;2022-08-18T14:00:04;8.63;;;3.95;;
29876;SDS011;16750;49.002;9.204;2022-08-18T14:02:37;5.22;;;3.80;;
29876;SDS011;16750;49.002;9.204;2022-08-18T14:05:02;7.57;;;3.67;;
29876;SDS011;16750;49.002;9.204;2022-08-18T14:07:28;7.97;;;4.13;;
29876;SDS011;16750;49.002;9.204;2022-08-18T14:09:53;6.07;;;4.10;;
29876;SDS011;16750;49.002;9.204;2022-08-18T14:12:19;5.80;;;3.80;;
29876;SDS011;16750;49.002;9.204;2022-08-18T14:14:46;5.30;;;4.53;;
29876;SDS011;16750;49.002;9.204;2022-08-18T14:17:12;6.15;;;3.70;;
29876;SDS011;16750;49.002;9.204;2022-08-18T14:19:38;8.43;;;3.90;;
29876;SDS011;16750;49.002;9.204;2022-08-18T14:22:32;5.80;;;3.78;;
29876;SDS011;16750;49.002;9.204;2022-08-18T14:25:16;5.43;;;3.80;;
29876;SDS011;16750;49.002;9.204;2022-08-18T14:28:00;4.65;;;3.70;;
29876;SDS011;16750;49.002;9.204;2022-08-18T14:30:26;7.78;;;4.18;;
29876;SDS011;16750;49.002;9.204;2022-08-18T14:32:51;4.85;;;3.72;;
29876;SDS011;16750;49.002;9.204;2022-08-18T14:35:17;6.95;;;3.83;;
29876;SDS011;16750;49.002;9.204;2022-08-18T14:37:43;4.85;;;3.63;;
29876;SDS011;16750;49.002;9.204;2022-08-18T14:40:09;5.78;;;4.05;;
29876;SDS011;16750;49.002;9.204;2022-08-18T14:42:35;5.93;;;4.25;;
29876;SDS011;16750;49.002;9.204;2022-08-18T14:45:02;6.38;;;3.92;;
29876;SDS011;16750;49.002;9.204;2022-08-18T14:47:30;5.50;;;3.70;;
29876;SDS011;16750;49.002;9.204;2022-08-18T14:49:56;5.70;;;3.72;;
29876;SDS011;16750;49.002;9.204;2022-08-18T14:52:23;8.45;;;3.63;;
29876;SDS011;16750;49.002;9.204;2022-08-18T14:54:49;7.13;;;4.40;;
29876;SDS011;16750;49.002;9.204;2022-08-18T14:57:15;5.05;;;3.70;;
29876;SDS011;16750;49.002;9.204;2022-08-18T14:59:41;4.93;;;3.70;;
29876;SDS011;16750;49.002;9.204;2022-08-18T15:02:08;6.70;;;3.80;;
29876;SDS011;16750;49.002;9.204;2022-08-18T15:04:35;5.20;;;3.45;;
29876;SDS011;16750;49.002;9.204;2022-08-18T15:07:01;6.40;;;4.28;;
29876;SDS011;16750;49.002;9.204;2022-08-18T15:09:27;6.43;;;3.40;;
29876;SDS011;16750;49.002;9.204;2022-08-18T15:11:57;5.43;;;3.70;;
29876;SDS011;16750;49.002;9.204;2022-08-18T15:14:27;6.88;;;3.88;;
29876;SDS011;16750;49.002;9.204;2022-08-18T15:19:24;5.07;;;3.70;;
29876;SDS011;16750;49.002;9.204;2022-08-18T15:21:50;5.10;;;3.67;;
29876;SDS011;16750;49.002;9.204;2022-08-18T15:24:37;5.90;;;3.78;;
29876;SDS011;16750;49.002;9.204;2022-08-18T15:27:22;4.80;;;3.55;;
29876;SDS011;16750;49.002;9.204;2022-08-18T15:29:48;5.43;;;3.58;;
29876;SDS011;16750;49.002;9.204;2022-08-18T15:32:13;5.40;;;3.45;;
29876;SDS011;16750;49.002;9.204;2022-08-18T15:34:39;5.05;;;3.50;;
29876;SDS011;16750;49.002;9.204;2022-08-18T15:37:07;14.13;;;4.10;;
29876;SDS011;16750;49.002;9.204;2022-08-18T15:39:33;4.80;;;3.60;;
29876;SDS011;16750;49.002;9.204;2022-08-18T15:41:59;5.07;;;4.00;;
29876;SDS011;16750;49.002;9.204;2022-08-18T15:44:24;6.88;;;3.67;;
29876;SDS011;16750;49.002;9.204;2022-08-18T15:46:49;6.38;;;3.63;;
29876;SDS011;16750;49.002;9.204;2022-08-18T15:49:16;4.45;;;3.33;;
29876;SDS011;16750;49.002;9.204;2022-08-18T15:51:43;4.88;;;3.40;;
29876;SDS011;16750;49.002;9.204;2022-08-18T15:54:09;5.13;;;3.55;;
29876;SDS011;16750;49.002;9.204;2022-08-18T15:56:35;5.60;;;3.70;;
29876;SDS011;16750;49.002;9.204;2022-08-18T15:59:02;6.50;;;3.55;;
29876;SDS011;16750;49.002;9.204;2022-08-18T16:01:32;5.00;;;3.70;;
29876;SDS011;16750;49.002;9.204;2022-08-18T16:04:00;5.10;;;3.63;;
29876;SDS011;16750;49.002;9.204;2022-08-18T16:06:27;5.75;;;3.45;;
29876;SDS011;16750;49.002;9.204;2022-08-18T16:08:53;5.07;;;3.40;;
29876;SDS011;16750;49.002;9.204;2022-08-18T16:11:19;4.30;;;3.42;;
29876;SDS011;16750;49.002;9.204;2022-08-18T16:13:46;5.72;;;3.00;;
29876;SDS011;16750;49.002;9.204;2022-08-18T16:16:14;6.78;;;3.50;;
29876;SDS011;16750;49.002;9.204;2022-08-18T16:18:42;6.97;;;3.60;;
29876;SDS011;16750;49.002;9.204;2022-08-18T16:21:12;6.03;;;3.45;;
29876;SDS011;16750;49.002;9.204;2022-08-18T16:23:41;8.60;;;3.63;;
29876;SDS011;16750;49.002;9.204;2022-08-18T16:26:09;5.90;;;3.58;;
29876;SDS011;16750;49.002;9.204;2022-08-18T16:28:38;4.15;;;3.45;;
29876;SDS011;16750;49.002;9.204;2022-08-18T16:31:05;5.35;;;3.60;;
29876;SDS011;16750;49.002;9.204;2022-08-18T16:33:31;6.75;;;4.20;;
29876;SDS011;16750;49.002;9.204;2022-08-18T16:36:06;5.53;;;3.85;;
29876;SDS011;16750;49.002;9.204;2022-08-18T16:38:34;7.07;;;4.13;;
29876;SDS011;16750;49.002;9.204;2022-08-18T16:41:03;5.75;;;3.83;;
29876;SDS011;16750;49.002;9.204;2022-08-18T16:43:33;5.07;;;4.20;;
29876;SDS011;16750;49.002;9.204;2022-08-18T16:46:00;6.90;;;5.05;;
29876;SDS011;16750;49.002;9.204;2022-08-18T16:48:27;6.20;;;4.43;;
29876;SDS011;16750;49.002;9.204;2022-08-18T16:50:53;7.78;;;4.47;;
29876;SDS011;16750;49.002;9.204;2022-08-18T16:53:18;6.63;;;4.95;;
29876;SDS011;16750;49.002;9.204;2022-08-18T16:55:43;6.25;;;4.90;;
29876;SDS011;16750;49.002;9.204;2022-08-18T16:58:09;7.95;;;5.00;;
29876;SDS011;16750;49.002;9.204;2022-08-18T17:00:53;6.47;;;4.93;;
29876;SDS011;16750;49.002;9.204;2022-08-18T17:03:58;5.82;;;4.78;;
29876;SDS011;16750;49.002;9.204;2022-08-18T17:06:35;9.15;;;5.15;;
29876;SDS011;16750;49.002;9.204;2022-08-18T17:09:02;7.88;;;6.00;;
29876;SDS011;16750;49.002;9.204;2022-08-18T17:11:28;7.22;;;5.68;;
29876;SDS011;16750;49.002;9.204;2022-08-18T17:13:54;9.20;;;7.03;;
29876;SDS011;16750;49.002;9.204;2022-08-18T17:16:22;9.30;;;7.18;;
29876;SDS011;16750;49.002;9.204;2022-08-18T17:18:49;8.60;;;6.82;;
29876;SDS011;16750;49.002;9.204;2022-08-18T17:21:16;7.65;;;6.57;;
29876;SDS011;16750;49.002;9.204;2022-08-18T17:23:44;9.52;;;7.07;;
29876;SDS011;16750;49.002;9.204;2022-08-18T17:26:21;10.43;;;7.50;;
29876;SDS011;16750;49.002;9.204;2022-08-18T17:28:57;9.15;;;7.78;;
29876;SDS011;16750;49.002;9.204;2022-08-18T17:31:29;11.77;;;7.57;;
29876;SDS011;16750;49.002;9.204;2022-08-18T17:33:58;10.57;;;8.10;;
29876;SDS011;16750;49.002;9.204;2022-08-18T17:36:31;10.65;;;7.68;;
29876;SDS011;16750;49.002;9.204;2022-08-18T17:39:02;9.52;;;7.53;;
29876;SDS011;16750;49.002;9.204;2022-08-18T17:41:30;9.45;;;7.88;;
29876;SDS011;16750;49.002;9.204;2022-08-18T17:43:56;10.50;;;8.30;;
29876;SDS011;16750;49.002;9.204;2022-08-18T17:46:27;9.73;;;8.27;;
29876;SDS011;16750;49.002;9.204;2022-08-18T17:48:58;10.70;;;7.95;;
29876;SDS011;16750;49.002;9.204;2022-08-18T17:51:29;11.48;;;8.32;;
29876;SDS011;16750;49.002;9.204;2022-08-18T17:56:50;8.75;;;7.90;;